»·PEaware :: N791JR KSMX-KBFL

N791JR :: KSMX-KBFL

FLIGHT INFORMATION

Flight Status: Arrived
Operator: Privately registered:
United States
More flights under this callsign
Pilot: Davin B. (15694)
Aircraft: CESSNA 172 SKYHAWK
(C172)
More flights by this aircraft type
Origin: KSMX Santa Maria Pub/Capt Hancock
United States
Destination: KBFL Meadows
United States
More flights between these airports :: More routes between these airports
Route: +
File this flight plan on PilotEdge
Remarks: CAT 05
Altitude:
(Current/Filed)
7,800ft
Speed:
(Current/Filed)
100kts
Departed: 14-Jun-17 07:41 PM
Arrived: 14-Jun-17 08:28 PM
Distance/Time
Traveled:
76nm/0:47
Distance/Time
To Go:
Arrived

Flight Plot

Page will automatically refresh every two minutes.


Map Options




Map Legend


Flown Route
Filed Route
Departure Airport
Arrival Airport
Navaid (VOR, NDB)
Fix

Horizontal Profiles

Position Reports

Time Latitude Longitude Heading Altitude Ground
Speed
14-Jun-17 19:28 34.897636 -120.447139 37 264ft 0kts
14-Jun-17 19:29 34.897636 -120.447139 37 264ft 0kts
14-Jun-17 19:30 34.897636 -120.447139 37 264ft 0kts
14-Jun-17 19:31 34.897636 -120.447139 37 264ft 0kts
14-Jun-17 19:32 34.897636 -120.447139 37 264ft 0kts
14-Jun-17 19:33 34.897636 -120.447139 37 264ft 0kts
14-Jun-17 19:34 34.897636 -120.447139 37 264ft 0kts
14-Jun-17 19:35 34.897636 -120.447139 37 264ft 0kts
14-Jun-17 19:36 34.897624 -120.447406 205 264ft 4kts
14-Jun-17 19:37 34.896803 -120.447625 220 264ft 9kts
14-Jun-17 19:38 34.895092 -120.446098 134 264ft 7kts
14-Jun-17 19:39 34.893570 -120.444900 196 264ft 3kts
14-Jun-17 19:40 34.893553 -120.444932 269 264ft 0kts
14-Jun-17 19:41 34.893553 -120.444932 269 264ft 0kts
14-Jun-17 19:42 34.893099 -120.445424 217 264ft 7kts
14-Jun-17 19:43 34.902042 -120.454898 324 790ft 66kts
14-Jun-17 19:44 34.916341 -120.469056 342 1779ft 74kts
14-Jun-17 19:45 34.928464 -120.451685 90 2781ft 80kts
14-Jun-17 19:46 34.927630 -120.421421 88 3613ft 96kts
14-Jun-17 19:47 34.928302 -120.389853 77 4511ft 90kts
14-Jun-17 19:48 34.934628 -120.361227 66 5389ft 87kts
14-Jun-17 19:49 34.943969 -120.333609 63 6186ft 90kts
14-Jun-17 19:51 34.954095 -120.305515 62 6980ft 90kts
14-Jun-17 19:52 34.965150 -120.276478 63 7539ft 108kts
14-Jun-17 19:53 34.978599 -120.241591 63 7582ft 117kts
14-Jun-17 19:54 34.992734 -120.205268 63 7580ft 119kts
14-Jun-17 19:55 35.006971 -120.168790 63 7577ft 119kts
14-Jun-17 19:56 35.021324 -120.132040 63 7574ft 120kts
14-Jun-17 19:57 35.035694 -120.095163 64 7571ft 120kts
14-Jun-17 19:58 35.050081 -120.058194 64 7569ft 121kts
14-Jun-17 19:59 35.064512 -120.021092 64 7569ft 121kts
14-Jun-17 20:00 35.078927 -119.983982 64 7568ft 121kts
14-Jun-17 20:01 35.093364 -119.946807 64 7569ft 121kts
14-Jun-17 20:02 35.107866 -119.909410 64 7463ft 128kts
14-Jun-17 20:03 35.122677 -119.871146 64 7448ft 122kts
14-Jun-17 20:04 35.137044 -119.834013 64 7448ft 120kts
14-Jun-17 20:05 35.151262 -119.797215 64 7447ft 120kts
14-Jun-17 20:06 35.165462 -119.760410 64 7445ft 120kts
14-Jun-17 20:07 35.179665 -119.723537 64 7445ft 120kts
14-Jun-17 20:08 35.193867 -119.686669 64 7445ft 120kts
14-Jun-17 20:09 35.208049 -119.649750 63 7445ft 120kts
14-Jun-17 20:10 35.222183 -119.612988 63 7444ft 119kts
14-Jun-17 20:11 35.236017 -119.577059 63 7432ft 107kts
14-Jun-17 20:12 35.248960 -119.543318 63 6930ft 109kts
14-Jun-17 20:13 35.261711 -119.510040 62 6418ft 106kts
14-Jun-17 20:14 35.274279 -119.477178 62 5830ft 109kts
14-Jun-17 20:15 35.287213 -119.443367 62 5242ft 110kts
14-Jun-17 20:16 35.300277 -119.409157 61 4652ft 111kts
14-Jun-17 20:17 35.313327 -119.374945 61 4061ft 110kts
14-Jun-17 20:18 35.326234 -119.341201 61 3486ft 108kts
14-Jun-17 20:19 35.338395 -119.309506 61 3442ft 97kts
14-Jun-17 20:20 35.350192 -119.278519 61 3293ft 104kts
14-Jun-17 20:21 35.361707 -119.248226 61 3108ft 107kts
14-Jun-17 20:22 35.375038 -119.213142 61 2924ft 118kts
14-Jun-17 20:23 35.389109 -119.175931 61 2809ft 117kts
14-Jun-17 20:24 35.403118 -119.143819 51 2687ft 102kts
14-Jun-17 20:25 35.393533 -119.111425 132 2266ft 110kts
14-Jun-17 20:26 35.376181 -119.082949 107 1834ft 105kts
14-Jun-17 20:26 35.382676 -119.057980 52 1519ft 84kts
14-Jun-17 20:27 35.395849 -119.036434 40 1299ft 76kts
14-Jun-17 20:29 35.414297 -119.031426 307 918ft 58kts
14-Jun-17 20:30 35.426017 -119.046788 310 609ft 61kts
14-Jun-17 20:31 35.435771 -119.058198 2 509ft 16kts
14-Jun-17 20:32 35.436214 -119.056877 124 509ft 9kts
14-Jun-17 20:33 35.433199 -119.053200 137 509ft 18kts
14-Jun-17 20:33 35.429974 -119.049314 140 509ft 17kts
14-Jun-17 20:34 35.427028 -119.045739 136 509ft 15kts
14-Jun-17 20:35 35.425825 -119.043256 7 509ft 0kts
14-Jun-17 20:36 35.425825 -119.043256 7 509ft 0kts
14-Jun-17 20:37 35.425825 -119.043256 7 509ft 0kts
14-Jun-17 20:38 35.425825 -119.043256 7 509ft 0kts
14-Jun-17 20:39 35.425825 -119.043256 7 509ft 0kts
14-Jun-17 20:40 35.425825 -119.043256 7 509ft 0kts
14-Jun-17 20:41 35.425825 -119.043256 7 509ft 0kts
14-Jun-17 20:42 35.425825 -119.043256 7 509ft 0kts
14-Jun-17 20:43 35.425825 -119.043256 7 509ft 0kts
14-Jun-17 20:44 35.425825 -119.043256 7 509ft 0kts

Navigation Log

Ident Type
1. KSMX Airport
2. KBFL Airport